Time;durP1;ratioP1;P1;durP2;ratioP2;P2;SDS_P1;SDS_P2;PMS_P1;PMS_P2;Temp;Humidity;BMP_temperature;BMP_pressure;BME280_temperature;BME280_humidity;BME280_pressure;Samples;Min_cycle;Max_cycle;Signal;HPM_P1;HPM_P2
2021/12/31 07:58:54;;;;;;;4.28;3.33;;;;;;;11.31;92.09;101636.03;5322492;27;20751;-80
2021/12/31 08:01:25;;;;;;;6.32;3.53;;;;;;;11.33;91.89;101635.78;5322331;28;20043;-72
2021/12/31 08:03:56;;;;;;;3.35;3.05;;;;;;;11.33;91.87;101641.31;5322788;28;20020;-75
2021/12/31 08:06:28;;;;;;;7.05;3.10;;;;;;;11.34;91.86;101644.94;5321742;28;20020;-75
2021/12/31 08:08:59;;;;;;;4.03;2.85;;;;;;;11.38;91.99;101648.84;5294048;28;20094;-74
2021/12/31 08:11:30;;;;;;;7.90;3.28;;;;;;;11.40;91.10;101649.38;5280246;28;20021;-76
2021/12/31 08:14:02;;;;;;;5.40;3.30;;;;;;;11.39;91.42;101651.31;5279164;28;20032;-72
2021/12/31 08:16:33;;;;;;;6.18;4.63;;;;;;;11.39;90.65;101651.31;5295960;28;20107;-73
2021/12/31 08:19:06;;;;;;;4.50;2.70;;;;;;;11.42;90.64;101652.72;5301858;28;20024;-82
2021/12/31 08:21:38;;;;;;;5.00;3.08;;;;;;;11.43;90.38;101657.19;5300353;28;20027;-77
2021/12/31 08:24:09;;;;;;;7.50;3.35;;;;;;;11.45;90.65;101658.56;5301368;28;20477;-77
2021/12/31 08:26:41;;;;;;;5.72;3.10;;;;;;;11.45;90.28;101630.78;5281269;28;20025;-76
2021/12/31 08:29:13;;;;;;;4.60;2.92;;;;;;;11.47;89.80;101630.50;5283566;28;20025;-83
2021/12/31 08:31:45;;;;;;;6.95;3.03;;;;;;;11.48;90.17;101607.19;5295987;28;20055;-81
2021/12/31 08:34:18;;;;;;;3.45;2.80;;;;;;;11.50;89.30;101614.13;5297662;28;20060;-81
2021/12/31 08:36:50;;;;;;;4.95;2.80;;;;;;;11.51;89.69;101638.00;5281640;28;20036;-91
2021/12/31 08:39:21;;;;;;;9.75;3.30;;;;;;;11.57;88.97;101627.72;5287865;28;20028;-87
2021/12/31 08:41:52;;;;;;;4.28;3.10;;;;;;;11.57;89.13;101635.22;5301666;28;20096;-86
2021/12/31 08:44:25;;;;;;;5.60;2.80;;;;;;;11.58;88.39;101626.63;5284385;28;20025;-84
2021/12/31 08:46:56;;;;;;;4.88;2.58;;;;;;;11.59;88.44;101619.13;5298155;28;20464;-82
2021/12/31 08:49:27;;;;;;;3.13;2.42;;;;;;;11.61;88.15;101620.50;5300320;28;20028;-82
2021/12/31 08:52:00;;;;;;;2.90;2.38;;;;;;;11.63;88.32;101618.31;5298830;28;20020;-81
2021/12/31 08:54:33;;;;;;;4.72;2.60;;;;;;;11.65;87.79;101610.50;5300318;28;20029;-81
2021/12/31 08:57:04;;;;;;;3.80;2.72;;;;;;;11.67;87.78;101607.44;5283011;28;20037;-83
2021/12/31 08:59:36;;;;;;;3.42;2.58;;;;;;;11.68;87.89;101603.53;5292255;28;20050;-76
2021/12/31 09:02:11;;;;;;;5.20;2.47;;;;;;;11.70;88.22;101591.03;5289661;28;20360;-83
2021/12/31 09:04:43;;;;;;;3.28;2.30;;;;;;;11.71;87.48;101597.47;5295445;28;20036;-79
2021/12/31 09:07:14;;;;;;;3.33;2.55;;;;;;;11.73;87.14;101601.63;5281218;28;20032;-80
2021/12/31 09:09:46;;;;;;;3.63;2.38;;;;;;;11.73;87.74;101607.19;5281059;28;20028;-80
2021/12/31 09:12:17;;;;;;;3.75;2.30;;;;;;;11.73;87.91;101598.84;5281660;28;20025;-81
2021/12/31 09:14:48;;;;;;;4.57;2.60;;;;;;;11.75;87.32;101612.44;5270210;28;20032;-81
2021/12/31 09:17:22;;;;;;;3.83;2.50;;;;;;;11.73;87.52;101618.28;5281128;28;20074;-82
2021/12/31 09:19:53;;;;;;;3.75;2.42;;;;;;;11.75;87.40;101613.25;5285921;28;20039;-81
2021/12/31 09:22:25;;;;;;;4.03;2.63;;;;;;;11.74;87.09;101614.38;5286890;28;20103;-78
2021/12/31 09:25:00;;;;;;;5.70;2.50;;;;;;;11.78;87.20;101613.81;5285443;28;20128;-80
2021/12/31 09:27:31;;;;;;;4.00;2.78;;;;;;;11.79;87.56;101621.91;5286105;28;20583;-80
2021/12/31 09:30:03;;;;;;;7.03;2.45;;;;;;;11.81;87.49;101618.81;5270994;28;20222;-79
2021/12/31 09:32:35;;;;;;;5.85;2.40;;;;;;;11.80;86.82;101617.16;5272721;28;20111;-78
2021/12/31 09:35:07;;;;;;;5.53;3.08;;;;;;;11.82;86.73;101624.13;5265148;28;20112;-80
2021/12/31 09:37:39;;;;;;;3.38;2.35;;;;;;;11.86;87.75;101649.38;5276801;28;20028;-80
2021/12/31 09:40:11;;;;;;;4.85;2.60;;;;;;;11.84;86.68;101654.41;5276807;28;20071;-81
2021/12/31 09:43:08;;;;;;;7.05;2.45;;;;;;;11.85;87.13;101645.78;5286125;28;20017;-86
2021/12/31 09:45:41;;;;;;;;;;;;;;;11.91;86.44;101663.31;5285379;28;20029;-77
2021/12/31 09:48:15;;;;;;;4.13;2.92;;;;;;;11.88;86.76;101650.81;5285196;28;19912;-76
2021/12/31 09:50:49;;;;;;;4.32;2.50;;;;;;;11.91;86.13;101654.97;5273040;28;20533;-78
2021/12/31 09:53:22;;;;;;;3.55;2.70;;;;;;;11.91;86.75;101664.16;5267884;28;20033;-77
2021/12/31 09:55:55;;;;;;;4.13;2.85;;;;;;;11.90;86.08;101670.00;5281386;28;20460;-79
2021/12/31 09:58:27;;;;;;;4.68;2.85;;;;;;;11.93;86.07;101667.47;5278208;28;20394;-77
2021/12/31 10:01:01;;;;;;;3.50;2.28;;;;;;;11.94;85.91;101662.78;5281483;28;20104;-77
2021/12/31 10:03:33;;;;;;;5.63;2.50;;;;;;;11.95;85.95;101647.75;5272191;28;20042;-82
2021/12/31 10:06:08;;;;;;;4.45;2.28;;;;;;;11.96;86.24;101650.28;5274509;28;20040;-78
2021/12/31 10:08:44;;;;;;;4.05;2.47;;;;;;;12.00;85.89;101644.16;5283540;28;20052;-79
2021/12/31 10:11:26;;;;;;;4.35;2.83;;;;;;;12.01;85.89;101660.53;5268738;28;20025;-75
2021/12/31 10:13:59;;;;;;;4.07;2.42;;;;;;;12.01;85.44;101652.19;5263052;28;20032;-78
2021/12/31 10:16:36;;;;;;;4.28;2.42;;;;;;;11.99;85.55;101632.19;5274638;28;20039;-79
2021/12/31 10:19:18;;;;;;;3.42;2.38;;;;;;;12.01;85.73;101616.03;5285222;28;20032;-81
2021/12/31 10:21:54;;;;;;;4.45;2.40;;;;;;;12.01;85.89;101632.72;5282253;28;20038;-75
2021/12/31 10:24:39;;;;;;;3.80;2.47;;;;;;;12.03;85.87;101649.97;5275378;28;20017;-82
2021/12/31 10:27:13;;;;;;;4.18;2.28;;;;;;;12.05;86.15;101642.19;5262720;28;20025;-75
2021/12/31 10:29:54;;;;;;;6.15;2.67;;;;;;;12.03;86.02;101621.34;5263433;28;20029;-76
2021/12/31 10:32:28;;;;;;;3.05;2.40;;;;;;;12.02;85.61;101620.50;5263259;28;20032;-77
2021/12/31 10:35:08;;;;;;;5.70;2.67;;;;;;;12.05;86.33;101639.41;5262298;28;20036;-79
2021/12/31 10:37:45;;;;;;;5.90;3.55;;;;;;;12.07;86.24;101628.03;5266611;28;20423;-79
2021/12/31 10:40:27;;;;;;;6.55;3.03;;;;;;;12.06;85.87;101632.72;5280883;28;20047;-80
2021/12/31 10:43:06;;;;;;;4.15;2.78;;;;;;;12.06;85.87;101627.16;5263068;28;20361;-74
2021/12/31 10:45:39;;;;;;;3.30;2.67;;;;;;;12.07;86.30;101651.09;5263531;28;20450;-73
2021/12/31 10:48:11;;;;;;;4.35;2.40;;;;;;;12.11;85.51;101651.34;5262253;28;20113;-75
2021/12/31 10:50:51;;;;;;;6.68;3.60;;;;;;;12.13;85.97;101649.94;5270756;28;20112;-82
2021/12/31 10:53:33;;;;;;;5.20;3.13;;;;;;;12.18;85.92;101668.59;5274500;28;20017;-80
2021/12/31 10:56:10;;;;;;;5.85;3.50;;;;;;;12.22;85.69;101668.84;5262873;28;20533;-79
2021/12/31 10:58:44;;;;;;;2.92;2.30;;;;;;;12.21;85.81;101654.09;5264237;28;20132;-79
2021/12/31 11:01:16;;;;;;;5.20;2.72;;;;;;;12.23;85.45;101653.84;5264436;28;20021;-82
2021/12/31 11:03:48;;;;;;;6.22;2.95;;;;;;;12.25;85.99;101658.00;5270366;28;20075;-82
2021/12/31 11:06:20;;;;;;;3.53;2.60;;;;;;;12.25;85.46;101641.31;5273686;28;20095;-82
2021/12/31 11:08:55;;;;;;;3.97;2.65;;;;;;;12.23;85.30;101642.72;5272988;28;20028;-81
2021/12/31 11:11:26;;;;;;;4.97;2.72;;;;;;;12.22;85.91;101638.25;5263077;28;20442;-81
2021/12/31 11:14:00;;;;;;;3.05;2.72;;;;;;;12.21;85.44;101637.44;5272371;28;20093;-85
2021/12/31 11:16:39;;;;;;;3.05;2.60;;;;;;;12.22;85.52;101624.34;5291204;28;20028;-84
2021/12/31 11:19:12;;;;;;;5.80;2.35;;;;;;;12.25;85.79;101632.16;5284381;28;20032;-80
2021/12/31 11:21:48;;;;;;;4.90;2.60;;;;;;;12.24;86.14;101619.34;5284369;28;20112;-81
2021/12/31 11:24:33;;;;;;;5.63;3.35;;;;;;;12.23;86.13;101599.03;5282824;28;20392;-81
2021/12/31 11:27:43;;;;;;;5.23;2.80;;;;;;;12.26;86.32;101622.69;5262697;28;20028;-75
2021/12/31 11:30:32;;;;;;;5.57;2.78;;;;;;;12.30;85.89;101604.31;5253644;28;20394;-84
2021/12/31 11:33:09;;;;;;;4.63;3.13;;;;;;;12.30;85.99;101585.69;5264261;28;20045;-82
2021/12/31 11:35:57;;;;;;;4.82;2.80;;;;;;;12.37;86.24;101577.00;5269122;28;20032;-86
2021/12/31 11:38:29;;;;;;;5.03;2.97;;;;;;;12.38;85.19;101585.09;5283971;28;20043;-84
2021/12/31 11:41:03;;;;;;;4.18;3.08;;;;;;;12.44;85.56;101568.38;5273988;28;20468;-80
2021/12/31 11:43:39;;;;;;;5.05;2.75;;;;;;;12.50;85.56;101568.09;5283425;28;20033;-78
2021/12/31 11:46:15;;;;;;;7.68;2.92;;;;;;;12.52;85.33;101556.66;5282064;28;20016;-80
2021/12/31 11:48:49;;;;;;;7.75;3.33;;;;;;;12.52;85.26;101545.53;5278390;28;20080;-76
2021/12/31 11:51:28;;;;;;;6.88;3.35;;;;;;;12.54;85.57;101557.22;5272892;28;20201;-74
2021/12/31 11:53:59;;;;;;;5.18;3.00;;;;;;;12.53;85.59;101566.69;5281484;28;20028;-74
2021/12/31 11:59:08;;;;;;;3.30;2.40;;;;;;;12.61;85.33;101578.03;5283361;28;20046;-84
2021/12/31 12:01:51;;;;;;;3.80;2.50;;;;;;;12.63;85.27;101580.53;5272704;28;20356;-74
2021/12/31 12:04:25;;;;;;;5.35;2.30;;;;;;;12.71;84.72;101570.75;5261620;28;20748;-74
2021/12/31 12:06:58;;;;;;;5.55;3.03;;;;;;;12.84;85.25;101570.13;5277706;28;20028;-75
2021/12/31 12:09:35;;;;;;;4.18;2.40;;;;;;;12.95;83.98;101582.84;5274692;28;20025;-72
2021/12/31 12:12:08;;;;;;;4.55;2.45;;;;;;;13.05;83.93;101574.44;5279605;28;20028;-70
2021/12/31 12:14:47;;;;;;;3.63;2.75;;;;;;;13.11;83.21;101560.47;5281611;28;20450;-74
2021/12/31 12:17:30;;;;;;;4.30;3.10;;;;;;;13.24;82.71;101545.88;5264357;28;20060;-72
2021/12/31 12:20:01;;;;;;;5.38;4.32;;;;;;;13.36;82.34;101551.97;5261199;28;20040;-75
2021/12/31 12:22:40;;;;;;;3.72;2.40;;;;;;;13.39;82.15;101542.19;5262233;28;20025;-73
2021/12/31 12:25:29;;;;;;;4.65;2.60;;;;;;;13.40;82.07;101547.47;5261767;28;20036;-76
2021/12/31 12:28:07;;;;;;;5.97;3.05;;;;;;;13.42;81.95;101548.03;5279685;28;20047;-69
2021/12/31 12:30:47;;;;;;;3.83;2.65;;;;;;;13.41;81.97;101549.13;5282666;28;20033;-71
2021/12/31 12:33:25;;;;;;;3.35;2.70;;;;;;;13.40;81.84;101549.44;5282118;28;20363;-72
2021/12/31 12:35:59;;;;;;;3.83;2.45;;;;;;;13.40;81.51;101555.84;5280465;28;20025;-79
2021/12/31 12:38:33;;;;;;;7.78;3.63;;;;;;;13.39;81.82;101556.94;5282177;28;20032;-68
2021/12/31 12:41:09;;;;;;;6.65;2.53;;;;;;;13.38;81.66;101558.06;5266771;28;20021;-69
2021/12/31 12:43:46;;;;;;;3.53;2.35;;;;;;;13.38;81.63;101562.81;5261978;28;20029;-67
2021/12/31 12:46:19;;;;;;;5.25;2.80;;;;;;;13.36;81.88;101545.56;5270673;28;20017;-72
2021/12/31 12:48:52;;;;;;;5.22;2.67;;;;;;;13.37;81.87;101550.84;5282269;28;20448;-73
2021/12/31 12:51:28;;;;;;;3.05;2.50;;;;;;;13.39;81.98;101567.25;5284697;28;20029;-71
2021/12/31 12:54:02;;;;;;;6.47;2.47;;;;;;;13.40;81.90;101600.41;5284853;28;20410;-70
2021/12/31 12:56:33;;;;;;;4.93;2.97;;;;;;;13.40;81.79;101599.59;5277368;28;20067;-72
2021/12/31 12:59:05;;;;;;;3.40;2.78;;;;;;;13.39;82.39;101604.31;5284717;28;20052;-70
2021/12/31 13:01:42;;;;;;;4.93;2.75;;;;;;;13.38;82.62;101602.66;5275252;28;20063;-70
2021/12/31 13:04:15;;;;;;;4.75;2.45;;;;;;;13.39;82.15;101614.63;5268032;28;20027;-69
2021/12/31 13:07:07;;;;;;;5.75;2.60;;;;;;;13.41;82.19;101604.03;5270601;28;20540;-69
2021/12/31 13:09:38;;;;;;;5.55;2.60;;;;;;;13.42;81.53;101612.09;5263150;28;20032;-71
2021/12/31 13:12:15;;;;;;;5.40;4.15;;;;;;;13.40;81.90;101619.91;5264298;28;20033;-73
2021/12/31 13:14:48;;;;;;;4.32;2.88;;;;;;;13.38;81.94;101622.16;5275729;28;20032;-73
2021/12/31 13:17:25;;;;;;;6.38;5.30;;;;;;;13.39;82.01;101628.56;5283632;28;20025;-74
2021/12/31 13:20:09;;;;;;;4.13;2.83;;;;;;;13.39;82.42;101626.59;5283812;28;20040;-72
2021/12/31 13:22:41;;;;;;;7.22;3.95;;;;;;;13.42;82.37;101630.75;5272957;28;20036;-72
2021/12/31 13:25:12;;;;;;;6.80;3.50;;;;;;;13.43;83.12;101644.41;5284576;28;20028;-72
2021/12/31 13:27:43;;;;;;;8.45;4.70;;;;;;;13.45;82.64;101636.59;5281833;28;20028;-74
2021/12/31 13:30:15;;;;;;;6.88;3.95;;;;;;;13.46;82.59;101646.59;5283226;28;20025;-71
2021/12/31 13:32:47;;;;;;;3.90;3.17;;;;;;;13.51;82.15;101639.34;5264069;28;20118;-70
2021/12/31 13:35:22;;;;;;;3.97;2.85;;;;;;;13.55;81.82;101643.19;5264333;28;20032;-75
2021/12/31 13:38:03;;;;;;;9.60;8.02;;;;;;;13.55;81.43;101645.97;5283276;28;20039;-72
2021/12/31 13:40:34;;;;;;;6.00;4.28;;;;;;;13.53;81.96;101651.03;5283596;28;20162;-76
2021/12/31 13:43:08;;;;;;;9.30;6.40;;;;;;;13.51;82.16;101647.69;5284357;28;20108;-72
2021/12/31 13:45:45;;;;;;;10.10;5.88;;;;;;;13.48;82.31;101641.59;5279344;28;20033;-71
2021/12/31 13:48:16;;;;;;;6.72;5.45;;;;;;;13.46;82.51;101643.81;5268539;28;20368;-71
2021/12/31 13:50:48;;;;;;;9.00;5.60;;;;;;;13.46;82.82;101646.59;5282362;28;20028;-72
2021/12/31 13:53:23;;;;;;;9.98;6.07;;;;;;;13.45;82.76;101650.53;5284020;28;20502;-72
2021/12/31 13:55:56;;;;;;;6.00;3.80;;;;;;;13.43;83.40;101654.72;5281761;28;20029;-72
2021/12/31 13:58:28;;;;;;;7.35;4.95;;;;;;;13.40;83.40;101653.34;5282393;28;20044;-72
2021/12/31 14:01:14;;;;;;;9.25;4.32;;;;;;;13.40;83.18;101652.53;5283635;28;20027;-72
2021/12/31 14:04:13;;;;;;;6.05;3.38;;;;;;;13.40;83.43;101655.31;5283433;28;20056;-72
2021/12/31 14:06:44;;;;;;;18.17;12.40;;;;;;;13.38;83.53;101668.69;5262649;28;20384;-71
2021/12/31 14:09:15;;;;;;;8.25;6.10;;;;;;;13.36;83.41;101668.97;5262511;28;20021;-72
2021/12/31 14:11:47;;;;;;;7.43;4.70;;;;;;;13.34;83.52;101676.78;5265754;28;20025;-72
2021/12/31 14:14:18;;;;;;;10.05;5.28;;;;;;;13.32;83.63;101680.97;5276989;28;20028;-70
2021/12/31 14:16:51;;;;;;;5.32;4.22;;;;;;;13.31;83.90;101688.50;5276572;28;20115;-70
2021/12/31 14:19:22;;;;;;;8.60;4.15;;;;;;;13.33;84.03;101685.44;5261663;28;20029;-74
2021/12/31 14:21:54;;;;;;;9.95;5.72;;;;;;;13.31;84.22;101699.66;5262761;28;20035;-71
2021/12/31 14:24:25;;;;;;;6.30;4.40;;;;;;;13.30;84.24;101700.78;5262011;28;20381;-74
2021/12/31 14:26:57;;;;;;;12.93;6.63;;;;;;;13.29;84.49;101713.03;5272774;28;20145;-73
2021/12/31 14:29:28;;;;;;;14.70;8.55;;;;;;;13.29;84.65;101721.38;5271033;28;20383;-74
2021/12/31 14:32:01;;;;;;;9.43;4.78;;;;;;;13.23;85.21;101711.38;5279235;28;20042;-72
2021/12/31 14:34:34;;;;;;;8.63;5.80;;;;;;;13.22;84.88;101720.84;5278817;28;20490;-74
2021/12/31 14:37:11;;;;;;;9.68;7.38;;;;;;;13.21;85.04;101713.59;5281432;28;20082;-74
2021/12/31 14:39:51;;;;;;;5.88;4.18;;;;;;;13.18;85.36;101714.19;5271324;28;20051;-75
2021/12/31 14:42:28;;;;;;;8.50;5.00;;;;;;;13.17;85.34;101718.09;5260354;28;20036;-75
2021/12/31 14:44:59;;;;;;;7.60;6.57;;;;;;;13.15;85.58;101726.72;5261907;28;20027;-74
2021/12/31 14:47:32;;;;;;;9.27;7.80;;;;;;;13.16;85.89;101727.53;5260999;28;20025;-73
2021/12/31 14:50:04;;;;;;;9.15;6.47;;;;;;;13.14;85.97;101736.22;5261465;28;20025;-75
2021/12/31 14:52:38;;;;;;;9.98;4.90;;;;;;;13.12;86.35;101737.59;5280449;28;20060;-76
2021/12/31 14:55:12;;;;;;;8.40;5.63;;;;;;;13.08;87.08;101736.50;5279731;28;20035;-73
2021/12/31 14:57:44;;;;;;;9.77;6.32;;;;;;;13.03;88.49;101740.13;5262123;28;20111;-73
2021/12/31 15:00:19;;;;;;;10.35;7.32;;;;;;;12.97;89.77;101744.06;5261575;28;20041;-73
2021/12/31 15:02:50;;;;;;;10.60;9.05;;;;;;;12.89;90.54;101739.91;5264288;28;20458;-72
2021/12/31 15:05:23;;;;;;;13.30;9.60;;;;;;;12.84;91.25;101749.13;5272647;28;20028;-73
2021/12/31 15:08:00;;;;;;;11.27;10.07;;;;;;;12.80;91.54;101750.78;5274321;28;20060;-73
2021/12/31 15:10:32;;;;;;;10.93;9.13;;;;;;;12.77;91.41;101758.88;5280566;28;20476;-74
2021/12/31 15:13:03;;;;;;;10.13;8.50;;;;;;;12.78;92.05;101763.31;5262745;28;20082;-77
2021/12/31 15:15:36;;;;;;;10.85;9.57;;;;;;;12.73;91.78;101771.69;5280280;28;20105;-76
2021/12/31 15:18:07;;;;;;;15.40;9.50;;;;;;;12.71;93.03;101768.38;5279747;28;20036;-76
2021/12/31 15:20:39;;;;;;;14.27;10.80;;;;;;;12.71;92.76;101771.97;5265594;28;20033;-77
2021/12/31 15:23:10;;;;;;;14.57;11.15;;;;;;;12.69;93.37;101762.25;5269094;28;20029;-73
2021/12/31 15:25:41;;;;;;;16.90;12.73;;;;;;;12.65;93.54;101766.69;5275753;28;20081;-74
2021/12/31 15:28:12;;;;;;;18.30;11.98;;;;;;;12.60;93.79;101779.53;5262092;28;20027;-74
2021/12/31 15:30:44;;;;;;;11.85;10.60;;;;;;;12.64;94.08;101773.38;5264493;28;20067;-74
2021/12/31 15:33:15;;;;;;;13.73;11.45;;;;;;;12.62;94.17;101776.44;5261504;28;20090;-70
2021/12/31 15:35:46;;;;;;;12.75;11.52;;;;;;;12.61;94.58;101785.91;5261094;28;20200;-69
2021/12/31 15:38:18;;;;;;;13.73;12.27;;;;;;;12.56;95.07;101791.47;5260298;28;20531;-72
2021/12/31 15:40:50;;;;;;;14.15;11.73;;;;;;;12.57;94.94;101784.78;5261006;28;20116;-68
2021/12/31 15:43:22;;;;;;;13.73;12.48;;;;;;;12.51;95.96;101777.56;5276429;28;20048;-70
2021/12/31 15:45:53;;;;;;;25.45;21.27;;;;;;;12.51;96.44;101789.53;5277205;28;20071;-68
2021/12/31 15:48:25;;;;;;;13.90;12.60;;;;;;;12.49;96.69;101786.19;5277058;28;20033;-72
2021/12/31 15:50:56;;;;;;;14.85;13.40;;;;;;;12.47;96.79;101784.81;5280909;28;20021;-72
2021/12/31 15:53:27;;;;;;;17.83;15.32;;;;;;;12.50;96.88;101776.75;5281245;28;20029;-72
2021/12/31 15:55:59;;;;;;;20.17;16.73;;;;;;;12.47;97.50;101780.06;5275627;28;20029;-72
2021/12/31 15:58:30;;;;;;;16.58;14.82;;;;;;;12.50;98.02;101779.53;5267900;28;20095;-72
2021/12/31 16:01:01;;;;;;;21.45;19.17;;;;;;;12.47;97.91;101770.91;5262755;28;20029;-76
2021/12/31 16:03:33;;;;;;;22.85;20.23;;;;;;;12.50;97.99;101779.53;5262329;28;20503;-77
2021/12/31 16:06:04;;;;;;;25.85;21.55;;;;;;;12.49;97.39;101777.84;5281158;28;20020;-77
2021/12/31 16:08:35;;;;;;;21.90;19.70;;;;;;;12.46;97.38;101770.06;5282009;28;20120;-76
2021/12/31 16:11:07;;;;;;;29.80;25.65;;;;;;;12.47;96.99;101776.47;5281934;28;20376;-77
2021/12/31 16:13:38;;;;;;;31.63;26.38;;;;;;;12.44;96.96;101769.50;5281112;28;20025;-77
2021/12/31 16:16:09;;;;;;;40.53;35.00;;;;;;;12.43;96.56;101769.81;5282081;28;20086;-77
2021/12/31 16:18:41;;;;;;;38.50;31.52;;;;;;;12.45;96.68;101779.53;5281994;28;20470;-80
2021/12/31 16:21:12;;;;;;;38.67;31.67;;;;;;;12.42;96.82;101774.50;5286467;28;20383;-80
2021/12/31 16:23:43;;;;;;;37.22;30.70;;;;;;;12.39;96.66;101764.78;5275727;28;20033;-80
2021/12/31 16:26:15;;;;;;;39.65;31.48;;;;;;;12.35;95.87;101773.97;5280910;28;20025;-79
2021/12/31 16:28:46;;;;;;;26.17;22.35;;;;;;;12.34;96.56;101775.06;5288690;28;20104;-79
2021/12/31 16:31:18;;;;;;;22.15;18.42;;;;;;;12.34;95.81;101773.13;5289605;28;20058;-78
2021/12/31 16:33:49;;;;;;;21.77;16.42;;;;;;;12.32;96.27;101763.38;5291201;28;20025;-79
2021/12/31 16:36:20;;;;;;;17.67;15.75;;;;;;;12.32;95.83;101777.28;5278302;28;20158;-79
2021/12/31 16:38:51;;;;;;;17.70;14.63;;;;;;;12.29;96.20;101777.88;5283699;28;20120;-79
2021/12/31 16:41:23;;;;;;;19.02;13.68;;;;;;;12.25;96.04;101785.13;5287402;28;20321;-79
2021/12/31 16:43:54;;;;;;;20.90;14.50;;;;;;;12.25;96.45;101796.25;5288735;28;20391;-79
2021/12/31 16:46:26;;;;;;;14.82;12.30;;;;;;;12.20;96.82;101791.50;5288345;28;20036;-79
2021/12/31 16:49:00;;;;;;;15.38;11.40;;;;;;;12.15;96.71;101795.09;5285740;28;20033;-79
2021/12/31 16:51:31;;;;;;;15.00;11.80;;;;;;;12.14;97.33;101801.78;5285560;28;20017;-79
2021/12/31 16:54:02;;;;;;;12.80;11.48;;;;;;;12.16;97.32;101804.28;5284649;28;20054;-78
2021/12/31 16:56:34;;;;;;;16.02;13.30;;;;;;;12.14;97.48;101809.28;5266404;28;20031;-79
2021/12/31 16:59:05;;;;;;;20.80;14.73;;;;;;;12.11;97.62;101807.06;5275401;28;20131;-78
2021/12/31 17:01:36;;;;;;;16.48;11.85;;;;;;;12.08;98.45;101807.63;5282539;28;20530;-79
2021/12/31 17:04:07;;;;;;;15.23;10.55;;;;;;;12.08;98.34;101808.44;5283458;28;20120;-78
2021/12/31 17:06:39;;;;;;;12.60;11.07;;;;;;;12.05;98.77;101820.13;5284856;28;20489;-80
2021/12/31 17:09:10;;;;;;;13.80;11.23;;;;;;;12.06;98.81;101832.06;5284718;28;20548;-78
2021/12/31 17:11:42;;;;;;;14.05;11.88;;;;;;;12.03;99.89;101838.19;5277366;28;20124;-79
2021/12/31 17:14:13;;;;;;;14.38;10.30;;;;;;;11.99;99.59;101846.25;5285002;28;20021;-79
2021/12/31 17:16:46;;;;;;;12.25;10.60;;;;;;;11.99;99.42;101848.19;5284070;28;20024;-78
2021/12/31 17:19:17;;;;;;;16.70;10.60;;;;;;;12.00;99.90;101845.13;5267570;28;20450;-79
2021/12/31 17:21:48;;;;;;;12.75;10.32;;;;;;;12.01;99.49;101852.34;5263056;28;20098;-75
2021/12/31 17:24:23;;;;;;;12.77;10.90;;;;;;;11.99;100.00;101857.38;5264020;28;20519;-76
2021/12/31 17:26:54;;;;;;;36.63;32.70;;;;;;;12.00;99.89;101858.22;5263537;28;20502;-74
2021/12/31 17:29:25;;;;;;;17.73;13.13;;;;;;;11.98;99.63;101857.66;5262485;28;20060;-74
